sensor_id;sensor_type;location;lat;lon;timestamp;temperature;humidity
31133;DHT22;17779;50.942;4.026;2023-11-21T00:00:19;9.40;99.90
31133;DHT22;17779;50.942;4.026;2023-11-21T00:02:44;9.40;99.90
31133;DHT22;17779;50.942;4.026;2023-11-21T00:05:14;9.40;99.90
31133;DHT22;17779;50.942;4.026;2023-11-21T00:07:40;9.40;99.90
31133;DHT22;17779;50.942;4.026;2023-11-21T00:10:06;9.30;99.90
31133;DHT22;17779;50.942;4.026;2023-11-21T00:12:33;9.20;99.90
31133;DHT22;17779;50.942;4.026;2023-11-21T00:14:59;9.20;99.90
31133;DHT22;17779;50.942;4.026;2023-11-21T00:17:25;9.10;99.90
31133;DHT22;17779;50.942;4.026;2023-11-21T00:19:51;9.20;99.90
31133;DHT22;17779;50.942;4.026;2023-11-21T00:22:19;9.20;99.90
31133;DHT22;17779;50.942;4.026;2023-11-21T00:24:45;9.30;99.90
31133;DHT22;17779;50.942;4.026;2023-11-21T00:27:11;9.50;99.90
31133;DHT22;17779;50.942;4.026;2023-11-21T00:29:38;9.60;99.90
31133;DHT22;17779;50.942;4.026;2023-11-21T00:32:08;9.70;99.90
31133;DHT22;17779;50.942;4.026;2023-11-21T00:34:36;9.70;99.90
31133;DHT22;17779;50.942;4.026;2023-11-21T00:37:03;9.70;99.90
31133;DHT22;17779;50.942;4.026;2023-11-21T00:39:30;9.50;99.90
31133;DHT22;17779;50.942;4.026;2023-11-21T00:41:57;9.80;99.90
31133;DHT22;17779;50.942;4.026;2023-11-21T00:44:23;9.90;99.90
31133;DHT22;17779;50.942;4.026;2023-11-21T00:46:49;10.00;99.90
31133;DHT22;17779;50.942;4.026;2023-11-21T00:49:15;9.90;99.90
31133;DHT22;17779;50.942;4.026;2023-11-21T00:51:41;9.70;99.90
31133;DHT22;17779;50.942;4.026;2023-11-21T00:54:08;9.80;99.90
31133;DHT22;17779;50.942;4.026;2023-11-21T00:56:34;9.80;99.90
31133;DHT22;17779;50.942;4.026;2023-11-21T00:59:00;9.80;99.90
31133;DHT22;17779;50.942;4.026;2023-11-21T01:01:27;9.60;99.90
31133;DHT22;17779;50.942;4.026;2023-11-21T01:03:53;9.70;99.90
31133;DHT22;17779;50.942;4.026;2023-11-21T01:06:19;9.90;99.90
31133;DHT22;17779;50.942;4.026;2023-11-21T01:08:45;9.70;99.90
31133;DHT22;17779;50.942;4.026;2023-11-21T01:11:12;9.70;99.90
31133;DHT22;17779;50.942;4.026;2023-11-21T01:13:38;9.60;99.90
31133;DHT22;17779;50.942;4.026;2023-11-21T01:16:04;9.50;99.90
31133;DHT22;17779;50.942;4.026;2023-11-21T01:18:32;9.50;99.90
31133;DHT22;17779;50.942;4.026;2023-11-21T01:20:58;9.60;99.90
31133;DHT22;17779;50.942;4.026;2023-11-21T01:23:26;9.80;99.90
31133;DHT22;17779;50.942;4.026;2023-11-21T01:25:52;10.00;99.90
31133;DHT22;17779;50.942;4.026;2023-11-21T01:28:19;10.10;99.90
31133;DHT22;17779;50.942;4.026;2023-11-21T01:30:45;10.20;99.90
31133;DHT22;17779;50.942;4.026;2023-11-21T01:33:11;10.10;99.90
31133;DHT22;17779;50.942;4.026;2023-11-21T01:35:36;9.80;99.90
31133;DHT22;17779;50.942;4.026;2023-11-21T01:38:03;9.70;99.90
31133;DHT22;17779;50.942;4.026;2023-11-21T01:40:33;9.70;99.90
31133;DHT22;17779;50.942;4.026;2023-11-21T01:43:00;9.80;99.90
31133;DHT22;17779;50.942;4.026;2023-11-21T01:45:25;9.80;99.90
31133;DHT22;17779;50.942;4.026;2023-11-21T01:47:51;10.00;99.90
31133;DHT22;17779;50.942;4.026;2023-11-21T01:50:17;10.20;99.90
31133;DHT22;17779;50.942;4.026;2023-11-21T01:52:46;10.20;99.90
31133;DHT22;17779;50.942;4.026;2023-11-21T01:55:16;10.30;99.90
31133;DHT22;17779;50.942;4.026;2023-11-21T01:57:45;10.30;99.90
31133;DHT22;17779;50.942;4.026;2023-11-21T02:00:11;10.20;99.90
31133;DHT22;17779;50.942;4.026;2023-11-21T02:02:48;10.20;99.90
31133;DHT22;17779;50.942;4.026;2023-11-21T02:05:15;10.30;99.90
31133;DHT22;17779;50.942;4.026;2023-11-21T02:07:45;10.10;99.90
31133;DHT22;17779;50.942;4.026;2023-11-21T02:10:14;10.30;99.90
31133;DHT22;17779;50.942;4.026;2023-11-21T02:12:41;10.10;99.90
31133;DHT22;17779;50.942;4.026;2023-11-21T02:15:08;9.90;99.90
31133;DHT22;17779;50.942;4.026;2023-11-21T02:17:35;9.80;99.90
31133;DHT22;17779;50.942;4.026;2023-11-21T02:20:02;9.70;99.90
31133;DHT22;17779;50.942;4.026;2023-11-21T02:22:29;9.60;99.90
31133;DHT22;17779;50.942;4.026;2023-11-21T02:24:59;9.50;99.90
31133;DHT22;17779;50.942;4.026;2023-11-21T02:27:24;9.50;99.90
31133;DHT22;17779;50.942;4.026;2023-11-21T02:29:52;9.50;99.90
31133;DHT22;17779;50.942;4.026;2023-11-21T02:32:18;9.60;99.90
31133;DHT22;17779;50.942;4.026;2023-11-21T02:34:45;9.60;99.90
31133;DHT22;17779;50.942;4.026;2023-11-21T02:37:12;9.60;99.90
31133;DHT22;17779;50.942;4.026;2023-11-21T02:39:38;9.60;99.90
31133;DHT22;17779;50.942;4.026;2023-11-21T02:42:05;9.70;99.90
31133;DHT22;17779;50.942;4.026;2023-11-21T02:44:31;9.80;99.90
31133;DHT22;17779;50.942;4.026;2023-11-21T02:46:56;9.70;99.90
31133;DHT22;17779;50.942;4.026;2023-11-21T02:49:24;9.60;99.90
31133;DHT22;17779;50.942;4.026;2023-11-21T02:51:49;9.60;99.90
31133;DHT22;17779;50.942;4.026;2023-11-21T02:54:16;9.60;99.90
31133;DHT22;17779;50.942;4.026;2023-11-21T02:56:42;9.70;99.90
31133;DHT22;17779;50.942;4.026;2023-11-21T02:59:07;9.70;99.90
31133;DHT22;17779;50.942;4.026;2023-11-21T03:01:34;9.70;99.90
31133;DHT22;17779;50.942;4.026;2023-11-21T03:03:59;9.70;99.90
31133;DHT22;17779;50.942;4.026;2023-11-21T03:06:25;9.60;99.90
31133;DHT22;17779;50.942;4.026;2023-11-21T03:08:51;9.60;99.90
31133;DHT22;17779;50.942;4.026;2023-11-21T03:11:18;9.60;99.90
31133;DHT22;17779;50.942;4.026;2023-11-21T03:13:44;9.60;99.90
31133;DHT22;17779;50.942;4.026;2023-11-21T03:16:10;9.50;99.90
31133;DHT22;17779;50.942;4.026;2023-11-21T03:18:36;9.80;99.90
31133;DHT22;17779;50.942;4.026;2023-11-21T03:21:07;9.80;99.90
31133;DHT22;17779;50.942;4.026;2023-11-21T03:23:36;9.70;99.90
31133;DHT22;17779;50.942;4.026;2023-11-21T03:26:03;9.60;99.90
31133;DHT22;17779;50.942;4.026;2023-11-21T03:28:29;9.50;99.90
31133;DHT22;17779;50.942;4.026;2023-11-21T03:30:59;9.60;99.90
31133;DHT22;17779;50.942;4.026;2023-11-21T03:33:26;9.60;99.90
31133;DHT22;17779;50.942;4.026;2023-11-21T03:35:53;9.60;99.90
31133;DHT22;17779;50.942;4.026;2023-11-21T03:38:18;9.70;99.90
31133;DHT22;17779;50.942;4.026;2023-11-21T03:40:44;9.70;99.90
31133;DHT22;17779;50.942;4.026;2023-11-21T03:43:11;9.80;99.90
31133;DHT22;17779;50.942;4.026;2023-11-21T03:45:38;9.60;99.90
31133;DHT22;17779;50.942;4.026;2023-11-21T03:48:07;9.60;99.90
31133;DHT22;17779;50.942;4.026;2023-11-21T03:50:34;9.60;99.90
31133;DHT22;17779;50.942;4.026;2023-11-21T03:53:00;9.50;99.90
31133;DHT22;17779;50.942;4.026;2023-11-21T03:55:27;9.60;99.90
31133;DHT22;17779;50.942;4.026;2023-11-21T03:57:53;9.80;99.90
31133;DHT22;17779;50.942;4.026;2023-11-21T04:00:19;9.80;99.90
31133;DHT22;17779;50.942;4.026;2023-11-21T04:02:48;9.90;99.90
31133;DHT22;17779;50.942;4.026;2023-11-21T04:05:16;9.90;99.90
31133;DHT22;17779;50.942;4.026;2023-11-21T04:07:41;9.70;99.90
31133;DHT22;17779;50.942;4.026;2023-11-21T04:10:07;9.70;99.90
31133;DHT22;17779;50.942;4.026;2023-11-21T04:12:39;9.60;99.90
31133;DHT22;17779;50.942;4.026;2023-11-21T04:15:05;9.70;99.90
31133;DHT22;17779;50.942;4.026;2023-11-21T04:17:30;9.60;99.90
31133;DHT22;17779;50.942;4.026;2023-11-21T04:19:56;9.50;99.90
31133;DHT22;17779;50.942;4.026;2023-11-21T04:22:22;9.80;99.90
31133;DHT22;17779;50.942;4.026;2023-11-21T04:24:48;9.90;99.90
31133;DHT22;17779;50.942;4.026;2023-11-21T04:27:14;10.00;99.90
31133;DHT22;17779;50.942;4.026;2023-11-21T04:29:40;9.90;99.90
31133;DHT22;17779;50.942;4.026;2023-11-21T04:32:06;9.80;99.90
31133;DHT22;17779;50.942;4.026;2023-11-21T04:34:34;10.00;99.90
31133;DHT22;17779;50.942;4.026;2023-11-21T04:37:00;9.90;99.90
31133;DHT22;17779;50.942;4.026;2023-11-21T04:39:28;9.90;99.90
31133;DHT22;17779;50.942;4.026;2023-11-21T04:41:53;9.90;99.90
31133;DHT22;17779;50.942;4.026;2023-11-21T04:44:19;10.00;99.90
31133;DHT22;17779;50.942;4.026;2023-11-21T04:46:45;10.20;99.90
31133;DHT22;17779;50.942;4.026;2023-11-21T04:49:11;10.40;99.90
31133;DHT22;17779;50.942;4.026;2023-11-21T04:51:37;10.20;99.90
31133;DHT22;17779;50.942;4.026;2023-11-21T04:54:03;10.20;99.90
31133;DHT22;17779;50.942;4.026;2023-11-21T04:56:28;10.30;99.90
31133;DHT22;17779;50.942;4.026;2023-11-21T04:58:54;10.60;99.90
31133;DHT22;17779;50.942;4.026;2023-11-21T05:01:19;10.70;99.90
31133;DHT22;17779;50.942;4.026;2023-11-21T05:03:45;10.20;99.90
31133;DHT22;17779;50.942;4.026;2023-11-21T05:06:12;10.10;99.90
31133;DHT22;17779;50.942;4.026;2023-11-21T05:08:38;10.20;99.90
31133;DHT22;17779;50.942;4.026;2023-11-21T05:11:03;10.50;99.90
31133;DHT22;17779;50.942;4.026;2023-11-21T05:13:29;10.70;99.90
31133;DHT22;17779;50.942;4.026;2023-11-21T05:15:55;10.50;99.90
31133;DHT22;17779;50.942;4.026;2023-11-21T05:18:25;10.30;99.90
31133;DHT22;17779;50.942;4.026;2023-11-21T05:20:56;10.40;99.90
31133;DHT22;17779;50.942;4.026;2023-11-21T05:23:21;10.40;99.90
31133;DHT22;17779;50.942;4.026;2023-11-21T05:25:47;10.60;99.90
31133;DHT22;17779;50.942;4.026;2023-11-21T05:28:13;10.20;99.90
31133;DHT22;17779;50.942;4.026;2023-11-21T05:30:38;10.00;99.90
31133;DHT22;17779;50.942;4.026;2023-11-21T05:33:05;10.20;99.90
31133;DHT22;17779;50.942;4.026;2023-11-21T05:35:31;10.30;99.90
31133;DHT22;17779;50.942;4.026;2023-11-21T05:37:57;10.50;99.90
31133;DHT22;17779;50.942;4.026;2023-11-21T05:40:23;10.60;99.90
31133;DHT22;17779;50.942;4.026;2023-11-21T05:42:49;10.80;99.90
31133;DHT22;17779;50.942;4.026;2023-11-21T05:45:18;10.80;99.90
31133;DHT22;17779;50.942;4.026;2023-11-21T05:47:44;10.70;99.90
31133;DHT22;17779;50.942;4.026;2023-11-21T05:50:13;10.90;99.90
31133;DHT22;17779;50.942;4.026;2023-11-21T05:52:46;10.90;99.90
31133;DHT22;17779;50.942;4.026;2023-11-21T05:55:12;10.70;99.90
31133;DHT22;17779;50.942;4.026;2023-11-21T05:57:39;10.40;99.90
31133;DHT22;17779;50.942;4.026;2023-11-21T06:00:07;10.60;99.90
31133;DHT22;17779;50.942;4.026;2023-11-21T06:02:37;10.80;99.90
31133;DHT22;17779;50.942;4.026;2023-11-21T06:05:03;11.00;99.90
31133;DHT22;17779;50.942;4.026;2023-11-21T06:07:29;11.00;99.90
31133;DHT22;17779;50.942;4.026;2023-11-21T06:09:56;11.20;99.90
31133;DHT22;17779;50.942;4.026;2023-11-21T06:12:22;11.00;99.90
31133;DHT22;17779;50.942;4.026;2023-11-21T06:14:47;10.80;99.90
31133;DHT22;17779;50.942;4.026;2023-11-21T06:17:13;10.50;99.90
31133;DHT22;17779;50.942;4.026;2023-11-21T06:19:41;10.50;99.90
31133;DHT22;17779;50.942;4.026;2023-11-21T06:22:07;10.70;99.90
31133;DHT22;17779;50.942;4.026;2023-11-21T06:24:33;10.90;99.90
31133;DHT22;17779;50.942;4.026;2023-11-21T06:26:58;11.00;99.90
31133;DHT22;17779;50.942;4.026;2023-11-21T06:29:24;10.90;99.90
31133;DHT22;17779;50.942;4.026;2023-11-21T06:31:51;11.10;99.90
31133;DHT22;17779;50.942;4.026;2023-11-21T06:34:17;11.00;99.90
31133;DHT22;17779;50.942;4.026;2023-11-21T06:36:43;11.00;99.90
31133;DHT22;17779;50.942;4.026;2023-11-21T06:39:09;11.00;99.90
31133;DHT22;17779;50.942;4.026;2023-11-21T06:41:35;11.10;99.90
31133;DHT22;17779;50.942;4.026;2023-11-21T06:44:04;11.20;99.90
31133;DHT22;17779;50.942;4.026;2023-11-21T06:46:30;11.20;99.90
31133;DHT22;17779;50.942;4.026;2023-11-21T06:48:55;11.20;99.90
31133;DHT22;17779;50.942;4.026;2023-11-21T06:51:21;11.00;99.90
31133;DHT22;17779;50.942;4.026;2023-11-21T06:53:48;11.10;99.90
31133;DHT22;17779;50.942;4.026;2023-11-21T06:56:18;11.20;99.90
31133;DHT22;17779;50.942;4.026;2023-11-21T06:58:45;11.10;99.90
31133;DHT22;17779;50.942;4.026;2023-11-21T07:01:13;11.00;99.90
31133;DHT22;17779;50.942;4.026;2023-11-21T07:03:40;10.90;99.90
31133;DHT22;17779;50.942;4.026;2023-11-21T07:06:06;10.80;99.90
31133;DHT22;17779;50.942;4.026;2023-11-21T07:08:34;10.80;99.90
31133;DHT22;17779;50.942;4.026;2023-11-21T07:11:00;10.70;99.90
31133;DHT22;17779;50.942;4.026;2023-11-21T07:13:26;10.70;99.90
31133;DHT22;17779;50.942;4.026;2023-11-21T07:15:51;10.60;99.90
31133;DHT22;17779;50.942;4.026;2023-11-21T07:18:17;10.60;99.90
31133;DHT22;17779;50.942;4.026;2023-11-21T07:20:43;10.70;99.90
31133;DHT22;17779;50.942;4.026;2023-11-21T07:23:09;10.80;99.90
31133;DHT22;17779;50.942;4.026;2023-11-21T07:25:34;10.80;99.90
31133;DHT22;17779;50.942;4.026;2023-11-21T07:28:01;10.90;99.90
31133;DHT22;17779;50.942;4.026;2023-11-21T07:30:26;11.00;99.90
31133;DHT22;17779;50.942;4.026;2023-11-21T07:32:52;11.00;99.90
31133;DHT22;17779;50.942;4.026;2023-11-21T07:35:18;10.80;99.90
31133;DHT22;17779;50.942;4.026;2023-11-21T07:37:43;10.80;99.90
31133;DHT22;17779;50.942;4.026;2023-11-21T07:40:09;10.70;99.90
31133;DHT22;17779;50.942;4.026;2023-11-21T07:42:37;10.70;99.90
31133;DHT22;17779;50.942;4.026;2023-11-21T07:45:03;10.90;99.90
31133;DHT22;17779;50.942;4.026;2023-11-21T07:47:31;11.00;99.90
31133;DHT22;17779;50.942;4.026;2023-11-21T07:50:00;11.00;99.90
31133;DHT22;17779;50.942;4.026;2023-11-21T07:52:25;11.00;99.90
31133;DHT22;17779;50.942;4.026;2023-11-21T07:54:51;11.00;99.90
31133;DHT22;17779;50.942;4.026;2023-11-21T07:57:16;11.20;99.90
31133;DHT22;17779;50.942;4.026;2023-11-21T07:59:42;11.20;99.90
31133;DHT22;17779;50.942;4.026;2023-11-21T08:02:08;11.40;99.90
31133;DHT22;17779;50.942;4.026;2023-11-21T08:04:33;11.60;99.90
31133;DHT22;17779;50.942;4.026;2023-11-21T08:07:01;11.80;99.90
31133;DHT22;17779;50.942;4.026;2023-11-21T08:09:27;11.70;99.90
31133;DHT22;17779;50.942;4.026;2023-11-21T08:11:53;11.60;99.90
31133;DHT22;17779;50.942;4.026;2023-11-21T08:14:18;11.40;99.90
31133;DHT22;17779;50.942;4.026;2023-11-21T08:16:45;11.40;99.90
31133;DHT22;17779;50.942;4.026;2023-11-21T08:19:11;11.40;99.90
31133;DHT22;17779;50.942;4.026;2023-11-21T08:21:36;11.30;99.90
31133;DHT22;17779;50.942;4.026;2023-11-21T08:24:08;11.40;99.90
31133;DHT22;17779;50.942;4.026;2023-11-21T08:26:36;11.30;99.90
31133;DHT22;17779;50.942;4.026;2023-11-21T08:29:02;11.20;99.90
31133;DHT22;17779;50.942;4.026;2023-11-21T08:31:30;11.30;99.90
31133;DHT22;17779;50.942;4.026;2023-11-21T08:33:55;11.50;99.90
31133;DHT22;17779;50.942;4.026;2023-11-21T08:36:23;11.30;99.90
31133;DHT22;17779;50.942;4.026;2023-11-21T08:38:49;11.40;99.90
31133;DHT22;17779;50.942;4.026;2023-11-21T08:41:17;11.30;99.90
31133;DHT22;17779;50.942;4.026;2023-11-21T08:43:43;11.10;99.90
31133;DHT22;17779;50.942;4.026;2023-11-21T08:46:10;11.10;99.90
31133;DHT22;17779;50.942;4.026;2023-11-21T08:48:36;11.40;99.90
31133;DHT22;17779;50.942;4.026;2023-11-21T08:51:02;11.20;99.90
31133;DHT22;17779;50.942;4.026;2023-11-21T08:53:29;11.30;99.90
31133;DHT22;17779;50.942;4.026;2023-11-21T08:55:54;11.50;99.90
31133;DHT22;17779;50.942;4.026;2023-11-21T08:58:20;11.60;99.90
31133;DHT22;17779;50.942;4.026;2023-11-21T09:00:45;11.50;99.90
31133;DHT22;17779;50.942;4.026;2023-11-21T09:03:12;11.40;99.90
31133;DHT22;17779;50.942;4.026;2023-11-21T09:05:38;11.40;99.90
31133;DHT22;17779;50.942;4.026;2023-11-21T09:08:04;11.50;99.90
31133;DHT22;17779;50.942;4.026;2023-11-21T09:10:30;11.40;99.90
31133;DHT22;17779;50.942;4.026;2023-11-21T09:12:56;11.20;99.90
31133;DHT22;17779;50.942;4.026;2023-11-21T09:15:22;11.20;99.90
31133;DHT22;17779;50.942;4.026;2023-11-21T09:17:48;11.10;99.90
31133;DHT22;17779;50.942;4.026;2023-11-21T09:20:14;11.10;99.90
31133;DHT22;17779;50.942;4.026;2023-11-21T09:22:40;11.10;99.90
31133;DHT22;17779;50.942;4.026;2023-11-21T09:25:06;11.20;99.90
31133;DHT22;17779;50.942;4.026;2023-11-21T09:27:33;11.20;99.90
31133;DHT22;17779;50.942;4.026;2023-11-21T09:30:03;11.20;99.90
31133;DHT22;17779;50.942;4.026;2023-11-21T09:32:31;11.20;99.90
31133;DHT22;17779;50.942;4.026;2023-11-21T09:34:56;11.30;99.90
31133;DHT22;17779;50.942;4.026;2023-11-21T09:37:23;11.30;99.90
31133;DHT22;17779;50.942;4.026;2023-11-21T09:39:51;11.30;99.90
31133;DHT22;17779;50.942;4.026;2023-11-21T09:42:23;11.30;99.90
31133;DHT22;17779;50.942;4.026;2023-11-21T09:47:24;11.50;99.90
31133;DHT22;17779;50.942;4.026;2023-11-21T09:49:50;11.70;99.90
31133;DHT22;17779;50.942;4.026;2023-11-21T09:52:25;11.90;99.90
31133;DHT22;17779;50.942;4.026;2023-11-21T09:54:52;12.20;99.90
31133;DHT22;17779;50.942;4.026;2023-11-21T09:57:21;12.80;99.90
31133;DHT22;17779;50.942;4.026;2023-11-21T09:59:50;13.70;99.90
31133;DHT22;17779;50.942;4.026;2023-11-21T10:02:16;14.40;99.90
31133;DHT22;17779;50.942;4.026;2023-11-21T10:04:44;14.70;99.90
31133;DHT22;17779;50.942;4.026;2023-11-21T10:07:10;14.70;99.90
31133;DHT22;17779;50.942;4.026;2023-11-21T10:09:37;14.50;99.90
31133;DHT22;17779;50.942;4.026;2023-11-21T10:12:03;15.00;99.90
31133;DHT22;17779;50.942;4.026;2023-11-21T10:14:34;15.20;99.90
31133;DHT22;17779;50.942;4.026;2023-11-21T10:17:02;15.20;99.90
31133;DHT22;17779;50.942;4.026;2023-11-21T10:19:28;15.60;99.90
31133;DHT22;17779;50.942;4.026;2023-11-21T10:21:55;15.90;99.90
31133;DHT22;17779;50.942;4.026;2023-11-21T10:24:23;16.40;99.90
31133;DHT22;17779;50.942;4.026;2023-11-21T10:26:49;16.90;99.90
31133;DHT22;17779;50.942;4.026;2023-11-21T10:29:16;16.40;99.90
31133;DHT22;17779;50.942;4.026;2023-11-21T10:31:50;15.80;99.90
31133;DHT22;17779;50.942;4.026;2023-11-21T10:34:18;15.90;99.90
31133;DHT22;17779;50.942;4.026;2023-11-21T10:36:45;16.10;99.90
31133;DHT22;17779;50.942;4.026;2023-11-21T10:39:21;16.00;99.90
31133;DHT22;17779;50.942;4.026;2023-11-21T10:41:51;16.20;99.90
31133;DHT22;17779;50.942;4.026;2023-11-21T10:44:17;16.80;99.90
31133;DHT22;17779;50.942;4.026;2023-11-21T10:46:47;16.80;99.90
31133;DHT22;17779;50.942;4.026;2023-11-21T10:49:25;16.80;99.90
31133;DHT22;17779;50.942;4.026;2023-11-21T10:51:52;16.60;99.90
31133;DHT22;17779;50.942;4.026;2023-11-21T10:54:19;16.00;99.90
31133;DHT22;17779;50.942;4.026;2023-11-21T10:56:50;15.70;99.90
31133;DHT22;17779;50.942;4.026;2023-11-21T10:59:17;15.20;99.90
31133;DHT22;17779;50.942;4.026;2023-11-21T11:01:47;14.80;99.90
31133;DHT22;17779;50.942;4.026;2023-11-21T11:04:18;14.20;99.90
31133;DHT22;17779;50.942;4.026;2023-11-21T11:06:46;13.90;99.90
31133;DHT22;17779;50.942;4.026;2023-11-21T11:09:16;13.80;99.90
31133;DHT22;17779;50.942;4.026;2023-11-21T11:11:42;13.50;99.90
31133;DHT22;17779;50.942;4.026;2023-11-21T11:14:12;13.10;99.90
31133;DHT22;17779;50.942;4.026;2023-11-21T11:16:40;12.80;99.90
31133;DHT22;17779;50.942;4.026;2023-11-21T11:19:09;12.70;99.90
31133;DHT22;17779;50.942;4.026;2023-11-21T11:24:13;12.50;99.90
31133;DHT22;17779;50.942;4.026;2023-11-21T11:26:46;12.50;99.90
31133;DHT22;17779;50.942;4.026;2023-11-21T11:32:03;12.40;99.90
31133;DHT22;17779;50.942;4.026;2023-11-21T11:37:22;12.50;99.90
31133;DHT22;17779;50.942;4.026;2023-11-21T11:39:51;12.70;99.90
31133;DHT22;17779;50.942;4.026;2023-11-21T11:42:18;13.10;99.90
31133;DHT22;17779;50.942;4.026;2023-11-21T11:44:46;13.30;99.90
31133;DHT22;17779;50.942;4.026;2023-11-21T11:57:33;13.10;99.90
31133;DHT22;17779;50.942;4.026;2023-11-21T12:00:11;13.00;99.90
31133;DHT22;17779;50.942;4.026;2023-11-21T12:02:42;13.10;99.90
31133;DHT22;17779;50.942;4.026;2023-11-21T12:05:11;13.00;99.90
31133;DHT22;17779;50.942;4.026;2023-11-21T12:10:22;12.80;99.90
31133;DHT22;17779;50.942;4.026;2023-11-21T12:12:59;12.60;99.90
31133;DHT22;17779;50.942;4.026;2023-11-21T12:15:25;12.60;99.90
31133;DHT22;17779;50.942;4.026;2023-11-21T12:17:53;12.50;99.90
31133;DHT22;17779;50.942;4.026;2023-11-21T12:20:19;12.40;99.90
31133;DHT22;17779;50.942;4.026;2023-11-21T12:25:23;12.40;99.90
31133;DHT22;17779;50.942;4.026;2023-11-21T12:27:52;12.30;99.90
31133;DHT22;17779;50.942;4.026;2023-11-21T12:30:18;12.40;99.90
31133;DHT22;17779;50.942;4.026;2023-11-21T12:32:51;12.50;99.90
31133;DHT22;17779;50.942;4.026;2023-11-21T12:37:46;12.60;99.90
31133;DHT22;17779;50.942;4.026;2023-11-21T12:40:12;12.50;99.90
31133;DHT22;17779;50.942;4.026;2023-11-21T12:42:44;12.40;99.90
31133;DHT22;17779;50.942;4.026;2023-11-21T12:45:22;12.30;99.90
31133;DHT22;17779;50.942;4.026;2023-11-21T12:47:49;12.20;99.90
31133;DHT22;17779;50.942;4.026;2023-11-21T12:50:25;12.20;99.90
31133;DHT22;17779;50.942;4.026;2023-11-21T12:52:59;12.30;99.90
31133;DHT22;17779;50.942;4.026;2023-11-21T12:55:25;12.20;99.90
31133;DHT22;17779;50.942;4.026;2023-11-21T12:57:52;12.30;99.90
31133;DHT22;17779;50.942;4.026;2023-11-21T13:00:27;12.30;99.90
31133;DHT22;17779;50.942;4.026;2023-11-21T13:02:54;12.20;99.90
31133;DHT22;17779;50.942;4.026;2023-11-21T13:07:54;12.30;99.90
31133;DHT22;17779;50.942;4.026;2023-11-21T13:10:26;12.30;99.90
31133;DHT22;17779;50.942;4.026;2023-11-21T13:12:57;12.30;99.90
31133;DHT22;17779;50.942;4.026;2023-11-21T13:15:27;12.40;99.90
31133;DHT22;17779;50.942;4.026;2023-11-21T13:17:54;12.50;99.90
31133;DHT22;17779;50.942;4.026;2023-11-21T13:20:20;12.40;99.90
31133;DHT22;17779;50.942;4.026;2023-11-21T13:22:47;12.40;99.90
31133;DHT22;17779;50.942;4.026;2023-11-21T13:25:14;12.50;99.90
31133;DHT22;17779;50.942;4.026;2023-11-21T13:27:45;12.40;99.90
31133;DHT22;17779;50.942;4.026;2023-11-21T13:30:12;12.40;99.90
31133;DHT22;17779;50.942;4.026;2023-11-21T13:32:42;12.20;99.90
31133;DHT22;17779;50.942;4.026;2023-11-21T13:35:08;11.90;99.90
31133;DHT22;17779;50.942;4.026;2023-11-21T13:37:43;11.70;99.90
31133;DHT22;17779;50.942;4.026;2023-11-21T13:40:11;11.70;99.90
31133;DHT22;17779;50.942;4.026;2023-11-21T13:42:40;11.60;99.90
31133;DHT22;17779;50.942;4.026;2023-11-21T13:45:06;11.50;99.90
31133;DHT22;17779;50.942;4.026;2023-11-21T13:47:33;11.60;99.90
31133;DHT22;17779;50.942;4.026;2023-11-21T13:50:04;11.60;99.90
31133;DHT22;17779;50.942;4.026;2023-11-21T13:52:33;11.50;99.90
31133;DHT22;17779;50.942;4.026;2023-11-21T13:55:02;11.50;99.90
31133;DHT22;17779;50.942;4.026;2023-11-21T13:57:33;11.50;99.90
31133;DHT22;17779;50.942;4.026;2023-11-21T14:00:01;11.50;99.90
31133;DHT22;17779;50.942;4.026;2023-11-21T14:02:27;11.50;99.90
31133;DHT22;17779;50.942;4.026;2023-11-21T14:05:00;11.60;99.90
31133;DHT22;17779;50.942;4.026;2023-11-21T14:07:30;11.50;99.90
31133;DHT22;17779;50.942;4.026;2023-11-21T14:10:00;11.50;99.90
31133;DHT22;17779;50.942;4.026;2023-11-21T14:12:26;11.50;99.90
31133;DHT22;17779;50.942;4.026;2023-11-21T14:14:53;11.50;99.90
31133;DHT22;17779;50.942;4.026;2023-11-21T14:17:20;11.50;99.90
31133;DHT22;17779;50.942;4.026;2023-11-21T14:19:49;11.50;99.90
31133;DHT22;17779;50.942;4.026;2023-11-21T14:22:17;11.50;99.90
31133;DHT22;17779;50.942;4.026;2023-11-21T14:24:45;11.50;99.90
31133;DHT22;17779;50.942;4.026;2023-11-21T14:27:13;11.50;99.90
31133;DHT22;17779;50.942;4.026;2023-11-21T14:32:11;11.40;99.90
31133;DHT22;17779;50.942;4.026;2023-11-21T14:34:37;11.40;99.90
31133;DHT22;17779;50.942;4.026;2023-11-21T14:37:06;11.40;99.90
31133;DHT22;17779;50.942;4.026;2023-11-21T14:39:32;11.30;99.90
31133;DHT22;17779;50.942;4.026;2023-11-21T14:42:03;11.30;99.90
31133;DHT22;17779;50.942;4.026;2023-11-21T14:44:29;11.30;99.90
31133;DHT22;17779;50.942;4.026;2023-11-21T14:47:00;11.30;99.90
31133;DHT22;17779;50.942;4.026;2023-11-21T14:49:31;11.30;99.90
31133;DHT22;17779;50.942;4.026;2023-11-21T14:52:09;11.30;99.90
31133;DHT22;17779;50.942;4.026;2023-11-21T14:54:52;11.40;99.90
31133;DHT22;17779;50.942;4.026;2023-11-21T14:57:30;11.40;99.90
31133;DHT22;17779;50.942;4.026;2023-11-21T14:59:57;11.50;99.90
31133;DHT22;17779;50.942;4.026;2023-11-21T15:02:23;11.50;99.90
31133;DHT22;17779;50.942;4.026;2023-11-21T15:05:09;11.30;99.90
31133;DHT22;17779;50.942;4.026;2023-11-21T15:07:40;11.30;99.90
31133;DHT22;17779;50.942;4.026;2023-11-21T15:10:06;11.20;99.90
31133;DHT22;17779;50.942;4.026;2023-11-21T15:12:36;11.20;99.90
31133;DHT22;17779;50.942;4.026;2023-11-21T15:15:05;11.20;99.90
31133;DHT22;17779;50.942;4.026;2023-11-21T15:17:36;11.20;99.90
31133;DHT22;17779;50.942;4.026;2023-11-21T15:20:03;11.10;99.90
31133;DHT22;17779;50.942;4.026;2023-11-21T15:22:34;11.10;99.90
31133;DHT22;17779;50.942;4.026;2023-11-21T15:25:01;11.10;99.90
31133;DHT22;17779;50.942;4.026;2023-11-21T15:27:34;11.10;99.90
31133;DHT22;17779;50.942;4.026;2023-11-21T15:30:03;11.10;99.90
31133;DHT22;17779;50.942;4.026;2023-11-21T15:32:29;11.10;99.90
31133;DHT22;17779;50.942;4.026;2023-11-21T15:34:56;11.10;99.90
31133;DHT22;17779;50.942;4.026;2023-11-21T15:37:22;11.10;99.90
31133;DHT22;17779;50.942;4.026;2023-11-21T15:39:51;11.10;99.90
31133;DHT22;17779;50.942;4.026;2023-11-21T15:42:17;11.10;99.90
31133;DHT22;17779;50.942;4.026;2023-11-21T15:44:43;11.10;99.90
31133;DHT22;17779;50.942;4.026;2023-11-21T15:47:10;11.10;99.90
31133;DHT22;17779;50.942;4.026;2023-11-21T15:49:36;11.10;99.90
31133;DHT22;17779;50.942;4.026;2023-11-21T15:52:04;11.10;99.90
31133;DHT22;17779;50.942;4.026;2023-11-21T15:54:32;11.10;99.90
31133;DHT22;17779;50.942;4.026;2023-11-21T15:57:00;11.00;99.90
31133;DHT22;17779;50.942;4.026;2023-11-21T15:59:26;10.90;99.90
31133;DHT22;17779;50.942;4.026;2023-11-21T16:01:57;10.90;99.90
31133;DHT22;17779;50.942;4.026;2023-11-21T16:06:54;10.90;99.90
31133;DHT22;17779;50.942;4.026;2023-11-21T16:09:19;10.90;99.90
31133;DHT22;17779;50.942;4.026;2023-11-21T16:11:57;10.90;99.90